createdAt,value
2018-05-26T00:01:58.486Z,71.15
2018-05-26T00:04:26.772Z,71.37
2018-05-26T00:06:55.034Z,71.44
2018-05-26T00:09:23.318Z,71.23
2018-05-26T00:11:51.594Z,70.80
2018-05-26T00:14:20.098Z,71.25
2018-05-26T00:16:48.405Z,71.39
2018-05-26T00:19:16.699Z,71.13
2018-05-26T00:21:44.986Z,71.30
2018-05-26T00:24:13.270Z,71.42
2018-05-26T00:26:41.529Z,71.16
2018-05-26T00:29:09.949Z,70.77
2018-05-26T00:31:38.198Z,71.61
2018-05-26T00:34:06.494Z,72.08
2018-05-26T00:36:34.753Z,72.13
2018-05-26T00:39:03.038Z,72.00
2018-05-26T00:41:31.312Z,72.41
2018-05-26T00:43:59.613Z,72.93
2018-05-26T00:46:27.871Z,73.80
2018-05-26T00:48:56.899Z,73.46
2018-05-26T00:51:25.170Z,73.28
2018-05-26T00:53:53.470Z,72.98
2018-05-26T00:58:49.086Z,72.93
2018-05-26T01:01:17.355Z,72.10
2018-05-26T01:03:45.654Z,71.73
2018-05-26T01:06:13.930Z,71.88
2018-05-26T01:08:42.239Z,72.48
2018-05-26T01:11:10.548Z,72.60
2018-05-26T01:13:38.817Z,72.19
2018-05-26T01:16:07.096Z,72.31
2018-05-26T01:18:35.349Z,72.08
2018-05-26T01:21:04.281Z,72.54
2018-05-26T01:23:32.549Z,72.74
2018-05-26T01:26:00.833Z,72.27
2018-05-26T01:28:29.191Z,72.10
2018-05-26T01:30:57.458Z,72.27
2018-05-26T01:33:25.728Z,72.59
2018-05-26T01:35:54.015Z,72.58
2018-05-26T01:38:22.268Z,72.88
2018-05-26T01:40:50.555Z,72.73
2018-05-26T01:43:18.829Z,72.66
2018-05-26T01:45:47.117Z,71.76
2018-05-26T01:48:15.389Z,71.68
2018-05-26T01:50:43.669Z,72.45
2018-05-26T01:53:11.969Z,73.13
2018-05-26T01:55:40.245Z,73.17
2018-05-26T01:58:08.549Z,73.04
2018-05-26T02:00:37.122Z,73.15
2018-05-26T02:03:05.406Z,73.68
2018-05-26T02:05:33.654Z,73.72
2018-05-26T02:08:01.961Z,73.95
2018-05-26T02:10:30.246Z,73.24
2018-05-26T02:12:58.569Z,73.23
2018-05-26T02:15:26.846Z,73.43
2018-05-26T02:17:55.124Z,73.27
2018-05-26T02:20:23.419Z,73.71
2018-05-26T02:22:52.157Z,73.54
2018-05-26T02:25:20.443Z,73.32
2018-05-26T02:27:48.727Z,73.11
2018-05-26T02:30:17.030Z,72.95
2018-05-26T02:32:45.306Z,72.96
2018-05-26T02:35:13.612Z,73.21
2018-05-26T02:37:41.879Z,73.65
2018-05-26T02:40:10.169Z,73.56
2018-05-26T02:42:38.758Z,73.34
2018-05-26T02:45:07.051Z,73.07
2018-05-26T02:47:35.923Z,73.05
2018-05-26T02:50:04.221Z,73.22
2018-05-26T02:52:32.474Z,73.61
2018-05-26T02:55:00.779Z,73.83
2018-05-26T02:57:29.057Z,73.76
2018-05-26T02:59:57.322Z,73.68
2018-05-26T03:02:25.619Z,73.39
2018-05-26T03:04:59.486Z,73.52
2018-05-26T03:07:33.451Z,73.44
2018-05-26T03:10:07.389Z,73.08
2018-05-26T03:12:41.143Z,73.43
2018-05-26T03:15:08.833Z,72.91
2018-05-26T03:17:37.908Z,73.37
2018-05-26T03:20:06.177Z,73.37
2018-05-26T03:22:34.457Z,73.60
2018-05-26T03:25:02.722Z,74.12
2018-05-26T03:27:31.039Z,74.82
2018-05-26T03:29:59.309Z,74.72
2018-05-26T03:32:27.806Z,74.51
2018-05-26T03:34:56.065Z,74.75
2018-05-26T03:37:24.376Z,74.55
2018-05-26T03:39:52.639Z,75.07
2018-05-26T03:42:20.939Z,74.80
2018-05-26T03:44:49.222Z,74.49
2018-05-26T03:47:17.809Z,74.23
2018-05-26T03:49:46.088Z,74.04
2018-05-26T03:52:14.387Z,74.14
2018-05-26T03:57:59.338Z,73.58
2018-05-26T04:00:27.606Z,73.45
2018-05-26T04:02:55.893Z,73.40
2018-05-26T04:05:24.152Z,73.02
2018-05-26T04:07:52.470Z,73.35
2018-05-26T04:10:20.737Z,73.41
2018-05-26T04:12:48.998Z,73.44
2018-05-26T04:15:17.273Z,73.37
2018-05-26T04:17:45.540Z,73.30
2018-05-26T04:20:14.033Z,73.16
2018-05-26T04:22:42.302Z,73.19
2018-05-26T04:25:10.613Z,72.96
2018-05-26T04:27:39.418Z,72.75
2018-05-26T04:30:07.710Z,72.68
2018-05-26T04:32:35.999Z,73.59
2018-05-26T04:35:04.308Z,73.78
2018-05-26T04:37:32.585Z,74.02
2018-05-26T04:40:00.896Z,74.21
2018-05-26T04:42:29.685Z,74.21
2018-05-26T04:44:58.008Z,74.36
2018-05-26T04:47:26.269Z,74.20
2018-05-26T04:49:54.582Z,74.51
2018-05-26T04:52:22.857Z,74.47
2018-05-26T04:54:51.153Z,74.23
2018-05-26T04:57:19.558Z,74.36
2018-05-26T04:59:48.742Z,74.22
2018-05-26T05:02:17.518Z,73.92
2018-05-26T05:04:45.778Z,73.84
2018-05-26T05:07:14.089Z,74.19
2018-05-26T05:09:42.357Z,74.44
2018-05-26T05:12:10.670Z,74.41
2018-05-26T05:14:38.954Z,74.10
2018-05-26T05:17:07.258Z,73.78
2018-05-26T05:19:35.550Z,73.33
2018-05-26T05:22:03.842Z,73.17
2018-05-26T05:24:32.291Z,72.49
2018-05-26T05:27:00.584Z,72.16
2018-05-26T05:29:28.845Z,72.36
2018-05-26T05:31:57.231Z,72.32
2018-05-26T05:34:25.497Z,72.60
2018-05-26T05:36:54.023Z,71.85
2018-05-26T05:39:22.313Z,71.82
2018-05-26T05:41:50.622Z,72.34
2018-05-26T05:44:18.908Z,72.36
2018-05-26T05:46:47.207Z,72.54
2018-05-26T05:49:15.487Z,72.34
2018-05-26T05:51:43.791Z,72.24
2018-05-26T05:54:12.154Z,72.37
2018-05-26T05:56:40.478Z,72.53
2018-05-26T05:59:08.765Z,72.31
2018-05-26T06:01:37.071Z,72.24
2018-05-26T06:04:05.352Z,72.15
2018-05-26T06:06:33.654Z,71.99
2018-05-26T06:09:01.931Z,71.88
2018-05-26T06:11:30.257Z,72.38
2018-05-26T06:13:58.560Z,72.46
2018-05-26T06:16:26.840Z,72.81
2018-05-26T06:18:55.127Z,72.96
2018-05-26T06:21:23.399Z,73.47
2018-05-26T06:26:19.083Z,72.83
2018-05-26T06:28:47.599Z,72.67
2018-05-26T06:31:16.010Z,72.36
2018-05-26T06:33:44.315Z,72.70
2018-05-26T06:36:12.600Z,72.87
2018-05-26T06:38:40.929Z,72.79
2018-05-26T06:41:09.198Z,72.55
2018-05-26T06:43:37.495Z,72.40
2018-05-26T06:46:05.768Z,71.90
2018-05-26T06:48:34.098Z,71.75
2018-05-26T06:51:02.377Z,71.23
2018-05-26T06:53:30.691Z,70.79
2018-05-26T06:55:58.964Z,70.21
2018-05-26T06:58:27.259Z,69.68
2018-05-26T07:00:55.551Z,69.44
2018-05-26T07:03:24.137Z,69.18
2018-05-26T07:05:52.433Z,69.24
2018-05-26T07:08:20.743Z,68.80
2018-05-26T07:10:48.993Z,68.42
2018-05-26T07:13:17.282Z,67.78
2018-05-26T07:15:45.887Z,67.19
2018-05-26T07:18:14.157Z,66.55
2018-05-26T07:20:42.451Z,65.25
2018-05-26T07:23:10.743Z,65.35
2018-05-26T07:25:39.043Z,64.82
2018-05-26T07:28:07.306Z,64.18
2018-05-26T07:30:35.598Z,63.81
2018-05-26T07:33:04.191Z,63.30
2018-05-26T07:35:32.465Z,62.63
2018-05-26T07:38:00.758Z,62.35
2018-05-26T07:40:29.010Z,62.18
2018-05-26T07:42:57.298Z,62.19
2018-05-26T07:45:25.558Z,62.64
2018-05-26T07:47:53.967Z,62.25
2018-05-26T07:50:22.227Z,61.88
2018-05-26T07:52:50.527Z,61.65
2018-05-26T07:55:18.856Z,60.45
2018-05-26T07:57:47.179Z,59.67
2018-05-26T08:00:15.411Z,59.64
2018-05-26T08:02:43.686Z,59.38
2018-05-26T08:05:11.957Z,59.26
2018-05-26T08:07:40.227Z,59.05
2018-05-26T08:10:08.494Z,59.09
2018-05-26T08:12:36.825Z,59.02
2018-05-26T08:15:05.116Z,58.40
2018-05-26T08:17:33.386Z,57.50
2018-05-26T08:20:01.703Z,57.69
2018-05-26T08:22:29.968Z,57.48
2018-05-26T08:24:58.386Z,57.55
2018-05-26T08:27:26.645Z,56.10
2018-05-26T08:29:54.963Z,55.57
2018-05-26T08:32:23.454Z,55.30
2018-05-26T08:34:51.751Z,55.13
2018-05-26T08:37:20.008Z,54.83
2018-05-26T08:39:48.286Z,54.53
2018-05-26T08:42:16.568Z,54.11
2018-05-26T08:44:44.848Z,54.08
2018-05-26T08:47:13.591Z,54.06
2018-05-26T08:49:42.676Z,53.63
2018-05-26T08:52:10.926Z,53.12
2018-05-26T08:54:39.382Z,53.20
2018-05-26T08:57:08.527Z,53.24
2018-05-26T08:59:36.833Z,52.42
2018-05-26T09:02:05.649Z,52.04
2018-05-26T09:04:33.902Z,52.30
2018-05-26T09:07:02.215Z,51.85
2018-05-26T09:09:30.481Z,51.02
2018-05-26T09:11:58.809Z,51.19
2018-05-26T09:14:27.083Z,50.82
2018-05-26T09:16:55.390Z,50.88
2018-05-26T09:19:23.849Z,50.71
2018-05-26T09:21:52.310Z,50.54
2018-05-26T09:24:20.531Z,49.97
2018-05-26T09:26:48.842Z,50.10
2018-05-26T09:29:17.135Z,49.42
2018-05-26T09:31:45.392Z,49.41
2018-05-26T09:34:13.671Z,48.67
2018-05-26T09:36:42.328Z,48.47
2018-05-26T09:39:10.585Z,47.99
2018-05-26T09:41:38.847Z,48.21
2018-05-26T09:44:07.153Z,48.27
2018-05-26T09:46:35.409Z,47.44
2018-05-26T09:49:04.694Z,47.17
2018-05-26T09:51:33.117Z,47.86
2018-05-26T09:54:01.391Z,47.38
2018-05-26T09:56:29.710Z,47.72
2018-05-26T09:58:57.992Z,47.63
2018-05-26T10:01:26.259Z,47.41
2018-05-26T10:03:54.567Z,47.46
2018-05-26T10:06:23.265Z,46.59
2018-05-26T10:08:51.879Z,46.04
2018-05-26T10:11:20.235Z,45.61
2018-05-26T10:13:48.491Z,45.01
2018-05-26T10:16:16.814Z,44.71
2018-05-26T10:18:45.065Z,44.54
2018-05-26T10:21:13.341Z,43.89
2018-05-26T10:23:41.606Z,44.19
2018-05-26T10:26:09.895Z,43.66
2018-05-26T10:28:38.185Z,43.43
2018-05-26T10:31:06.472Z,43.38
2018-05-26T10:33:34.739Z,43.05
2018-05-26T10:36:03.026Z,42.31
2018-05-26T10:38:31.276Z,41.52
2018-05-26T10:40:59.588Z,40.83
2018-05-26T10:43:27.871Z,40.09
2018-05-26T10:46:08.046Z,41.21
2018-05-26T10:48:36.322Z,40.88
2018-05-26T10:51:05.267Z,40.11
2018-05-26T10:53:33.578Z,40.42
2018-05-26T10:56:01.832Z,39.97
2018-05-26T10:58:30.121Z,39.99
2018-05-26T11:00:58.466Z,39.18
2018-05-26T11:03:26.868Z,38.66
2018-05-26T11:05:55.109Z,38.76
2018-05-26T11:08:23.408Z,39.14
2018-05-26T11:10:51.664Z,38.54
2018-05-26T11:13:19.959Z,38.78
2018-05-26T11:15:48.227Z,38.29
2018-05-26T11:18:16.515Z,38.69
2018-05-26T11:20:44.798Z,38.43
2018-05-26T11:23:13.093Z,37.37
2018-05-26T11:25:41.419Z,37.19
2018-05-26T11:28:09.814Z,37.54
2018-05-26T11:30:38.091Z,35.93
2018-05-26T11:33:06.374Z,34.35
2018-05-26T11:35:34.675Z,35.72
2018-05-26T11:38:03.020Z,35.82
2018-05-26T11:40:31.299Z,36.15
2018-05-26T11:42:59.582Z,35.33
2018-05-26T11:45:27.986Z,36.44
2018-05-26T11:47:56.271Z,36.01
2018-05-26T11:50:24.562Z,35.38
2018-05-26T11:52:52.984Z,34.08
2018-05-26T11:55:22.328Z,32.58
2018-05-26T11:57:51.489Z,31.90
2018-05-26T12:00:19.903Z,32.83
2018-05-26T12:02:48.999Z,32.65
2018-05-26T12:05:17.692Z,33.61
2018-05-26T12:07:45.967Z,33.79
2018-05-26T12:10:14.247Z,32.96
2018-05-26T12:12:42.526Z,33.26
2018-05-26T12:15:10.923Z,32.42
2018-05-26T12:17:39.186Z,32.09
2018-05-26T12:20:07.509Z,31.63
2018-05-26T12:22:36.573Z,31.96
2018-05-26T12:25:04.891Z,31.47
2018-05-26T12:27:33.146Z,31.08
2018-05-26T12:30:01.432Z,31.35
2018-05-26T12:32:29.679Z,31.75
2018-05-26T12:34:57.996Z,31.78
2018-05-26T12:37:26.258Z,31.97
2018-05-26T12:39:54.580Z,32.69
2018-05-26T12:42:22.838Z,32.35
2018-05-26T12:44:51.185Z,32.74
2018-05-26T12:47:19.430Z,33.04
2018-05-26T12:49:47.706Z,33.15
2018-05-26T12:52:16.201Z,32.58
2018-05-26T12:54:44.457Z,32.31
2018-05-26T12:57:12.972Z,31.39
2018-05-26T12:59:41.287Z,30.41
2018-05-26T13:02:10.163Z,30.63
2018-05-26T13:04:38.426Z,30.61
2018-05-26T13:07:06.726Z,30.30
2018-05-26T13:09:35.012Z,30.26
2018-05-26T13:12:03.291Z,30.55
2018-05-26T13:14:31.555Z,30.74
2018-05-26T13:16:59.844Z,30.73
2018-05-26T13:19:28.180Z,30.74
2018-05-26T13:21:56.426Z,30.07
2018-05-26T13:24:24.688Z,29.78
2018-05-26T13:26:53.084Z,29.11
2018-05-26T13:29:21.388Z,28.75
2018-05-26T13:31:49.729Z,28.65
2018-05-26T13:34:18.003Z,29.55
2018-05-26T13:36:46.269Z,28.00
2018-05-26T13:39:14.593Z,28.98
2018-05-26T13:41:42.868Z,28.42
2018-05-26T13:44:11.190Z,28.13
2018-05-26T13:46:39.706Z,27.84
2018-05-26T13:49:08.027Z,28.33
2018-05-26T13:51:36.361Z,28.20
2018-05-26T13:54:05.387Z,28.40
2018-05-26T13:56:33.748Z,28.19
2018-05-26T13:59:02.110Z,28.67
2018-05-26T14:01:30.374Z,29.36
2018-05-26T14:03:58.668Z,29.33
2018-05-26T14:06:27.067Z,29.50
2018-05-26T14:08:55.367Z,29.77
2018-05-26T14:11:23.647Z,30.33
2018-05-26T14:13:51.931Z,29.97
2018-05-26T14:16:20.211Z,30.10
2018-05-26T14:18:48.527Z,30.09
2018-05-26T14:21:16.853Z,30.20
2018-05-26T14:23:45.187Z,31.39
2018-05-26T14:26:13.482Z,33.89
2018-05-26T14:28:41.794Z,34.20
2018-05-26T14:31:10.110Z,33.42
2018-05-26T14:33:38.393Z,33.77
2018-05-26T14:36:06.739Z,33.32
2018-05-26T14:38:35.100Z,33.31
2018-05-26T14:41:03.409Z,33.03
2018-05-26T14:43:31.672Z,32.79
2018-05-26T14:45:59.955Z,33.31
2018-05-26T14:48:28.229Z,34.18
2018-05-26T14:50:56.525Z,35.02
2018-05-26T14:53:24.819Z,35.57
2018-05-26T14:55:53.198Z,34.64
2018-05-26T14:58:21.551Z,33.17
2018-05-26T15:00:49.803Z,33.00
2018-05-26T15:03:18.061Z,33.25
2018-05-26T15:05:46.375Z,32.42
2018-05-26T15:08:16.571Z,32.72
2018-05-26T15:10:50.823Z,32.65
2018-05-26T15:13:19.140Z,32.33
2018-05-26T15:15:47.394Z,33.08
2018-05-26T15:18:15.644Z,32.89
2018-05-26T15:20:43.948Z,31.78
2018-05-26T15:23:12.264Z,33.08
2018-05-26T15:25:40.546Z,32.64
2018-05-26T15:28:08.840Z,32.35
2018-05-26T15:30:37.092Z,33.05
2018-05-26T15:33:05.507Z,32.77
2018-05-26T15:35:33.775Z,32.49
2018-05-26T15:38:02.055Z,32.30
2018-05-26T15:40:30.368Z,31.73
2018-05-26T15:42:58.613Z,30.53
2018-05-26T15:45:26.888Z,30.29
2018-05-26T15:47:55.892Z,31.06
2018-05-26T15:50:24.262Z,32.24
2018-05-26T15:52:52.546Z,31.60
2018-05-26T15:55:20.821Z,29.98
2018-05-26T15:57:49.307Z,29.45
2018-05-26T16:00:17.587Z,29.26
2018-05-26T16:02:45.879Z,29.64
2018-05-26T16:05:14.137Z,30.73
2018-05-26T16:07:42.430Z,30.50
2018-05-26T16:10:10.695Z,30.36
2018-05-26T16:12:39.001Z,30.83
2018-05-26T16:15:07.300Z,30.39
2018-05-26T16:17:35.595Z,30.82
2018-05-26T16:20:03.866Z,31.11
2018-05-26T16:22:32.176Z,30.83
2018-05-26T16:25:00.442Z,31.03
2018-05-26T16:27:28.722Z,31.17
2018-05-26T16:29:57.227Z,30.76
2018-05-26T16:32:25.495Z,30.46
2018-05-26T16:34:53.834Z,30.88
2018-05-26T16:37:22.110Z,31.49
2018-05-26T16:39:50.566Z,30.69
2018-05-26T16:42:18.807Z,30.50
2018-05-26T16:44:47.087Z,30.25
2018-05-26T16:47:15.442Z,30.47
2018-05-26T16:49:43.704Z,31.30
2018-05-26T16:52:12.074Z,30.96
2018-05-26T16:54:40.365Z,30.84
2018-05-26T16:57:08.618Z,31.06
2018-05-26T16:59:36.922Z,32.08
2018-05-26T17:02:05.358Z,31.93
2018-05-26T17:04:33.672Z,32.46
2018-05-26T17:07:02.000Z,32.64
2018-05-26T17:09:30.314Z,32.80
2018-05-26T17:11:59.144Z,32.99
2018-05-26T17:14:27.416Z,34.45
2018-05-26T17:16:55.698Z,35.22
2018-05-26T17:19:23.998Z,36.15
2018-05-26T17:21:52.308Z,36.36
2018-05-26T17:24:20.573Z,36.47
2018-05-26T17:26:48.849Z,36.28
2018-05-26T17:29:17.105Z,36.18
2018-05-26T17:31:45.387Z,36.04
2018-05-26T17:34:13.645Z,36.07
2018-05-26T17:36:41.944Z,35.88
2018-05-26T17:39:10.450Z,36.30
2018-05-26T17:41:38.770Z,36.20
2018-05-26T17:44:08.289Z,36.61
2018-05-26T17:46:36.567Z,36.59
2018-05-26T17:49:05.570Z,36.40
2018-05-26T17:51:33.871Z,36.88
2018-05-26T17:54:02.203Z,37.69
2018-05-26T17:56:30.513Z,37.79
2018-05-26T17:58:58.779Z,37.65
2018-05-26T18:01:27.047Z,37.91
2018-05-26T18:03:55.414Z,37.82
2018-05-26T18:06:23.776Z,37.59
2018-05-26T18:08:52.059Z,38.19
2018-05-26T18:11:21.615Z,38.66
2018-05-26T18:13:50.462Z,38.62
2018-05-26T18:16:19.571Z,38.51
2018-05-26T18:18:47.858Z,38.64
2018-05-26T18:21:16.171Z,38.91
2018-05-26T18:23:45.069Z,39.16
2018-05-26T18:26:13.304Z,39.27
2018-05-26T18:28:41.582Z,39.61
2018-05-26T18:31:09.939Z,39.62
2018-05-26T18:33:39.151Z,39.83
2018-05-26T18:36:07.410Z,39.93
2018-05-26T18:38:35.714Z,40.10
2018-05-26T18:41:05.219Z,40.15
2018-05-26T18:43:33.514Z,40.31
2018-05-26T18:46:01.775Z,40.67
2018-05-26T18:48:30.061Z,41.14
2018-05-26T18:50:58.421Z,41.50
2018-05-26T18:53:26.680Z,41.38
2018-05-26T18:55:54.947Z,41.50
2018-05-26T18:58:23.530Z,41.98
2018-05-26T19:00:51.851Z,42.25
2018-05-26T19:03:20.437Z,42.68
2018-05-26T19:05:48.727Z,43.15
2018-05-26T19:08:17.031Z,43.37
2018-05-26T19:10:46.329Z,43.77
2018-05-26T19:13:14.558Z,44.00
2018-05-26T19:15:42.850Z,44.38
2018-05-26T19:18:11.114Z,44.74
2018-05-26T19:20:39.401Z,44.86
2018-05-26T19:23:07.666Z,44.90
2018-05-26T19:25:35.954Z,45.31
2018-05-26T19:28:05.404Z,45.54
2018-05-26T19:30:33.706Z,45.61
2018-05-26T19:33:01.965Z,45.87
2018-05-26T19:35:30.267Z,46.02
2018-05-26T19:37:58.544Z,45.95
2018-05-26T19:40:26.827Z,46.11
2018-05-26T19:42:55.104Z,46.40
2018-05-26T19:45:23.454Z,46.44
2018-05-26T19:47:51.729Z,46.90
2018-05-26T19:50:20.047Z,47.13
2018-05-26T19:52:48.462Z,47.45
2018-05-26T19:55:16.749Z,47.46
2018-05-26T19:57:45.040Z,47.91
2018-05-26T20:00:13.310Z,48.37
2018-05-26T20:02:41.665Z,48.94
2018-05-26T20:05:10.045Z,49.41
2018-05-26T20:07:38.309Z,49.78
2018-05-26T20:10:06.566Z,50.07
2018-05-26T20:12:34.854Z,50.61
2018-05-26T20:15:03.131Z,50.87
2018-05-26T20:17:31.457Z,51.11
2018-05-26T20:19:59.813Z,51.26
2018-05-26T20:22:28.123Z,51.50
2018-05-26T20:24:56.433Z,52.05
2018-05-26T20:27:24.751Z,52.38
2018-05-26T20:29:53.015Z,52.36
2018-05-26T20:32:21.307Z,52.59
2018-05-26T20:34:49.591Z,52.27
2018-05-26T20:37:17.944Z,52.57
2018-05-26T20:39:46.224Z,52.63
2018-05-26T20:42:14.475Z,52.68
2018-05-26T20:44:42.789Z,52.88
2018-05-26T20:47:11.132Z,53.44
2018-05-26T20:49:39.431Z,53.82
2018-05-26T20:52:07.706Z,54.12
2018-05-26T20:54:36.213Z,54.04
2018-05-26T20:57:05.528Z,54.39
2018-05-26T20:59:33.872Z,54.65
2018-05-26T21:02:02.176Z,54.82
2018-05-26T21:04:30.538Z,54.80
2018-05-26T21:06:59.006Z,54.78
2018-05-26T21:09:27.298Z,55.11
2018-05-26T21:11:56.083Z,55.38
2018-05-26T21:14:24.373Z,55.62
2018-05-26T21:16:52.662Z,55.73
2018-05-26T21:19:20.974Z,55.83
2018-05-26T21:21:49.242Z,56.10
2018-05-26T21:24:17.540Z,56.47
2018-05-26T21:26:45.810Z,56.65
2018-05-26T21:29:14.104Z,56.65
2018-05-26T21:31:42.407Z,57.03
2018-05-26T21:34:10.736Z,57.33
2018-05-26T21:36:39.042Z,58.12
2018-05-26T21:39:07.322Z,59.12
2018-05-26T21:41:35.643Z,59.00
2018-05-26T21:44:04.983Z,59.03
2018-05-26T21:46:33.362Z,58.93
2018-05-26T21:49:01.670Z,58.63
2018-05-26T21:51:30.014Z,58.93
2018-05-26T21:53:58.274Z,59.02
2018-05-26T21:56:26.567Z,58.98
2018-05-26T21:58:55.493Z,58.87
2018-05-26T22:01:23.765Z,58.92
2018-05-26T22:03:52.029Z,59.21
2018-05-26T22:06:20.315Z,59.33
2018-05-26T22:08:48.594Z,59.55
2018-05-26T22:11:16.866Z,60.15
2018-05-26T22:13:45.232Z,61.01
2018-05-26T22:16:13.500Z,61.76
2018-05-26T22:18:41.838Z,61.55
2018-05-26T22:21:10.135Z,61.26
2018-05-26T22:23:38.443Z,61.21
2018-05-26T22:26:06.927Z,61.83
2018-05-26T22:28:35.223Z,61.84
2018-05-26T22:31:03.503Z,61.90
2018-05-26T22:33:31.803Z,62.93
2018-05-26T22:36:00.538Z,63.14
2018-05-26T22:38:28.837Z,62.53
2018-05-26T22:40:57.531Z,62.20
2018-05-26T22:43:25.990Z,61.92
2018-05-26T22:45:54.281Z,61.69
2018-05-26T22:48:22.544Z,61.31
2018-05-26T22:50:50.853Z,61.30
2018-05-26T22:53:19.610Z,61.41
2018-05-26T22:55:48.000Z,61.58
2018-05-26T22:58:16.261Z,61.72
2018-05-26T23:00:44.549Z,62.51
2018-05-26T23:03:13.000Z,62.62
2018-05-26T23:05:41.592Z,63.02
2018-05-26T23:08:09.841Z,62.61
2018-05-26T23:10:38.174Z,62.17
2018-05-26T23:13:06.490Z,62.06
2018-05-26T23:15:34.830Z,61.71
2018-05-26T23:18:03.098Z,61.70
2018-05-26T23:20:31.386Z,61.52
2018-05-26T23:22:59.662Z,61.71
2018-05-26T23:25:28.158Z,61.44
2018-05-26T23:27:56.586Z,61.49
2018-05-26T23:30:24.903Z,61.68
2018-05-26T23:32:53.152Z,61.76
2018-05-26T23:35:21.492Z,61.71
2018-05-26T23:37:49.764Z,61.68
2018-05-26T23:40:18.113Z,61.91
2018-05-26T23:42:46.767Z,62.19
2018-05-26T23:45:15.080Z,62.36
2018-05-26T23:47:43.342Z,62.62
2018-05-26T23:50:11.629Z,62.37
2018-05-26T23:52:39.931Z,62.20
2018-05-26T23:55:08.217Z,62.30
2018-05-26T23:57:36.518Z,62.83
